createdAt,value
2022-09-21T00:00:39.682Z,1011.081543
2022-09-21T00:01:34.465Z,1011.129761
2022-09-21T00:02:33.713Z,1011.104919
2022-09-21T00:03:32.914Z,1011.096863
2022-09-21T00:04:31.231Z,1011.153137
2022-09-21T00:06:28.284Z,1011.031067
2022-09-21T00:07:28.484Z,1011.130127
2022-09-21T00:08:30.929Z,1011.095398
2022-09-21T00:09:26.122Z,1011.123596
2022-09-21T00:11:20.859Z,1011.0625
2022-09-21T00:12:21.677Z,1011.177979
2022-09-21T00:13:14.338Z,1011.143494
2022-09-21T00:14:15.447Z,1011.111877
2022-09-21T00:15:11.668Z,1011.169128
2022-09-21T00:17:06.626Z,1011.106384
2022-09-21T00:18:11.189Z,1011.101563
2022-09-21T00:18:38.829Z,1011.101563
2022-09-21T00:21:02.898Z,1011.130554
2022-09-21T00:21:09.068Z,1011.09021
2022-09-21T00:22:10.284Z,1011.162048
2022-09-21T00:23:09.283Z,1011.069214
2022-09-21T00:24:03.897Z,1011.056335
2022-09-21T00:25:03.173Z,1011.158997
2022-09-21T00:27:03.120Z,1011.156433
2022-09-21T00:28:01.627Z,1011.198181
2022-09-21T00:29:03.086Z,1011.160339
2022-09-21T00:30:10.867Z,1011.155762
2022-09-21T00:31:09.747Z,1011.185608
2022-09-21T00:32:07.328Z,1011.154297
2022-09-21T00:33:07.027Z,1011.186035
2022-09-21T00:34:02.332Z,1011.153137
2022-09-21T00:35:16.487Z,1011.199402
2022-09-21T00:37:54.923Z,1011.199768
2022-09-21T00:38:16.782Z,1011.26001
2022-09-21T00:39:21.091Z,1011.252502
2022-09-21T00:41:20.624Z,1011.264038
2022-09-21T00:42:18.185Z,1011.228271
2022-09-21T00:43:20.509Z,1011.280029
2022-09-21T00:44:14.866Z,1011.242188
2022-09-21T00:45:11.209Z,1011.278503
2022-09-21T00:46:09.891Z,1011.247498
2022-09-21T00:47:04.453Z,1011.277405
2022-09-21T00:48:04.930Z,1011.30719
2022-09-21T00:49:07.952Z,1011.216614
2022-09-21T00:50:08.054Z,1011.244934
2022-09-21T00:51:06.157Z,1011.279358
2022-09-21T00:52:07.982Z,1011.327515
2022-09-21T00:53:06.047Z,1011.304504
2022-09-21T00:54:12.013Z,1011.289673
2022-09-21T00:55:09.493Z,1011.317993
2022-09-21T00:57:04.723Z,1011.306458
2022-09-21T00:58:06.233Z,1011.334717
2022-09-21T00:59:00.658Z,1011.397522
2022-09-21T00:59:58.880Z,1011.29187
2022-09-21T01:01:54.457Z,1011.299988
2022-09-21T01:02:48.808Z,1011.29187
2022-09-21T01:03:51.190Z,1011.275452
2022-09-21T01:04:43.140Z,1011.356201
2022-09-21T01:06:41.053Z,1011.376038
2022-09-21T01:07:41.796Z,1011.308594
2022-09-21T01:08:38.320Z,1011.336548
2022-09-21T01:09:40.271Z,1011.277344
2022-09-21T01:11:31.873Z,1011.320129
2022-09-21T01:12:39.118Z,1011.295654
2022-09-21T01:13:33.524Z,1011.280701
2022-09-21T01:15:13.069Z,1011.260254
2022-09-21T01:16:09.435Z,1011.280457
2022-09-21T01:17:10.958Z,1011.280518
2022-09-21T01:18:08.178Z,1011.313416
2022-09-21T01:19:10.014Z,1011.257629
2022-09-21T01:22:23.694Z,1011.265015
2022-09-21T01:22:43.499Z,1011.302368
2022-09-21T01:23:41.021Z,1011.2724
2022-09-21T01:24:44.796Z,1011.287842
2022-09-21T01:26:44.267Z,1011.346863
2022-09-21T01:27:45.774Z,1011.322815
2022-09-21T01:28:41.208Z,1011.331299
2022-09-21T01:29:40.071Z,1011.340149
2022-09-21T01:30:37.553Z,1011.31073
2022-09-21T01:31:37.753Z,1011.363892
2022-09-21T01:32:35.770Z,1011.354309
2022-09-21T01:33:39.691Z,1011.433777
2022-09-21T01:34:35.171Z,1011.351501
2022-09-21T01:35:34.057Z,1011.361389
2022-09-21T01:36:28.361Z,1011.366394
2022-09-21T01:37:26.088Z,1011.353271
2022-09-21T01:38:21.491Z,1011.407959
2022-09-21T01:39:20.256Z,1011.353271
2022-09-21T01:40:13.698Z,1011.411072
2022-09-21T01:41:13.131Z,1011.409241
2022-09-21T01:42:10.793Z,1011.402649
2022-09-21T01:43:05.045Z,1011.432495
2022-09-21T01:44:06.629Z,1011.355164
2022-09-21T01:45:01.305Z,1011.381592
2022-09-21T01:46:54.241Z,1011.404846
2022-09-21T01:47:56.542Z,1011.426147
2022-09-21T01:48:47.408Z,1011.419678
2022-09-21T01:49:47.477Z,1011.333984
2022-09-21T01:50:44.640Z,1011.393311
2022-09-21T01:51:45.074Z,1011.327393
2022-09-21T01:52:41.387Z,1011.320862
2022-09-21T01:53:41.808Z,1011.324219
2022-09-21T01:54:47.023Z,1011.291321
2022-09-21T01:56:38.353Z,1011.255005
2022-09-21T01:57:33.045Z,1011.386902
2022-09-21T01:58:39.994Z,1011.370483
2022-09-21T01:59:34.258Z,1011.372253
2022-09-21T02:01:32.479Z,1011.256897
2022-09-21T02:02:37.788Z,1011.321106
2022-09-21T02:03:36.337Z,1011.349304
2022-09-21T02:04:27.218Z,1011.278503
2022-09-21T02:05:28.471Z,1011.382202
2022-09-21T02:06:26.724Z,1011.322876
2022-09-21T02:07:23.994Z,1011.395447
2022-09-21T02:08:18.413Z,1011.318115
2022-09-21T02:09:27.815Z,1011.311646
2022-09-21T02:11:34.786Z,1011.311096
2022-09-21T02:11:59.165Z,1011.36554
2022-09-21T02:12:58.157Z,1011.259827
2022-09-21T02:13:59.088Z,1011.347046
2022-09-21T02:14:55.604Z,1011.28125
2022-09-21T02:15:56.962Z,1011.301025
2022-09-21T02:16:54.088Z,1011.27002
2022-09-21T02:17:55.309Z,1011.30127
2022-09-21T02:19:03.062Z,1011.314819
2022-09-21T02:20:03.555Z,1011.28186
2022-09-21T02:22:04.983Z,1011.278748
2022-09-21T02:23:01.580Z,1011.332947
2022-09-21T02:24:04.863Z,1011.332947
2022-09-21T02:24:59.513Z,1011.324829
2022-09-21T02:26:59.587Z,1011.309937
2022-09-21T02:28:01.781Z,1011.356079
2022-09-21T02:28:59.707Z,1011.349548
2022-09-21T02:30:01.541Z,1011.262329
2022-09-21T02:30:59.737Z,1011.341492
2022-09-21T02:32:08.099Z,1011.31842
2022-09-21T02:33:10.185Z,1011.276855
2022-09-21T02:34:13.431Z,1011.331299
2022-09-21T02:35:10.618Z,1011.319702
2022-09-21T02:37:08.312Z,1011.280151
2022-09-21T02:38:10.360Z,1011.281982
2022-09-21T02:39:10.572Z,1011.311646
2022-09-21T02:40:12.819Z,1011.344543
2022-09-21T02:42:10.798Z,1011.29657
2022-09-21T02:43:13.621Z,1011.266846
2022-09-21T02:44:07.461Z,1011.177979
2022-09-21T02:45:11.467Z,1011.272278
2022-09-21T02:47:08.015Z,1011.253967
2022-09-21T02:48:37.976Z,1011.212952
2022-09-21T02:49:27.816Z,1011.237488
2022-09-21T02:51:22.436Z,1011.257202
2022-09-21T02:52:18.488Z,1011.277039
2022-09-21T02:53:19.324Z,1011.253967
2022-09-21T02:54:18.811Z,1011.222595
2022-09-21T02:56:18.687Z,1011.24054
2022-09-21T02:57:19.143Z,1011.173218
2022-09-21T02:58:15.416Z,1011.217529
2022-09-21T02:59:17.665Z,1011.201111
2022-09-21T03:01:19.442Z,1011.181274
2022-09-21T03:02:13.872Z,1011.242371
2022-09-21T03:03:12.810Z,1011.206116
2022-09-21T03:04:07.724Z,1011.14502
2022-09-21T03:05:07.412Z,1011.214233
2022-09-21T03:07:08.563Z,1011.247498
2022-09-21T03:08:03.864Z,1011.211182
2022-09-21T03:09:05.999Z,1011.203125
2022-09-21T03:10:02.210Z,1011.194702
2022-09-21T03:11:59.184Z,1011.189697
2022-09-21T03:12:58.786Z,1011.253723
2022-09-21T03:13:54.150Z,1011.229248
2022-09-21T03:14:56.139Z,1011.240601
2022-09-21T03:16:56.476Z,1011.199707
2022-09-21T03:17:50.831Z,1011.262207
2022-09-21T03:18:52.014Z,1011.209534
2022-09-21T03:19:51.205Z,1011.263733
2022-09-21T03:21:53.392Z,1011.25061
2022-09-21T03:22:52.044Z,1011.280334
2022-09-21T03:23:58.526Z,1011.30188
2022-09-21T03:25:44.013Z,1011.398804
2022-09-21T03:26:27.635Z,1011.315002
2022-09-21T03:27:26.929Z,1011.349365
2022-09-21T03:28:28.076Z,1011.245789
2022-09-21T03:29:25.264Z,1011.344666
2022-09-21T03:31:25.958Z,1011.329712
2022-09-21T03:32:26.360Z,1011.357788
2022-09-21T03:33:28.416Z,1011.352722
2022-09-21T03:34:26.115Z,1011.329712
2022-09-21T03:35:26.533Z,1011.309937
2022-09-21T03:36:29.749Z,1011.357788
2022-09-21T03:37:32.777Z,1011.308411
2022-09-21T03:38:36.223Z,1011.293457
2022-09-21T03:39:41.302Z,1011.331482
2022-09-21T03:40:39.983Z,1011.356018
2022-09-21T03:41:44.207Z,1011.288574
2022-09-21T03:42:43.243Z,1011.377563
2022-09-21T03:43:41.385Z,1011.334778
2022-09-21T03:44:47.186Z,1011.361084
2022-09-21T03:46:48.199Z,1011.324829
2022-09-21T03:47:43.042Z,1011.403931
2022-09-21T03:48:46.416Z,1011.377563
2022-09-21T03:49:43.640Z,1011.412048
2022-09-21T03:50:46.949Z,1011.374268
2022-09-21T03:51:41.459Z,1011.305176
2022-09-21T03:52:45.199Z,1011.375793
2022-09-21T03:53:38.992Z,1011.341309
2022-09-21T03:54:43.881Z,1011.4021
2022-09-21T03:56:41.219Z,1011.400635
2022-09-21T03:57:42.690Z,1011.359314
2022-09-21T03:58:44.979Z,1011.405396
2022-09-21T03:59:42.896Z,1011.370911
2022-09-21T04:00:52.562Z,1011.359314
2022-09-21T04:01:50.925Z,1011.413757
2022-09-21T04:02:53.286Z,1011.369202
2022-09-21T04:03:53.782Z,1011.374268
2022-09-21T04:04:55.331Z,1011.356018
2022-09-21T04:05:55.416Z,1011.38092
2022-09-21T04:06:58.933Z,1011.384155
2022-09-21T04:07:55.310Z,1011.42041
2022-09-21T04:08:55.029Z,1011.369202
2022-09-21T04:09:59.344Z,1011.387451
2022-09-21T04:11:56.652Z,1011.336243
2022-09-21T04:12:52.052Z,1011.329712
2022-09-21T04:13:59.331Z,1011.339539
2022-09-21T04:14:55.284Z,1011.331421
2022-09-21T04:17:04.382Z,1011.349365
2022-09-21T04:18:02.945Z,1011.395447
2022-09-21T04:20:27.002Z,1011.415161
2022-09-21T04:21:34.270Z,1011.369202
2022-09-21T04:22:43.332Z,1011.346069
2022-09-21T04:23:40.499Z,1011.339539
2022-09-21T04:24:37.731Z,1011.359314
2022-09-21T04:25:43.795Z,1011.370911
2022-09-21T04:26:40.198Z,1011.39563
2022-09-21T04:27:36.658Z,1011.347961
2022-09-21T04:28:39.585Z,1011.39563
2022-09-21T04:29:41.661Z,1011.36438
2022-09-21T04:31:39.616Z,1011.379089
2022-09-21T04:32:40.310Z,1011.44342
2022-09-21T04:33:36.703Z,1011.446716
2022-09-21T04:34:36.950Z,1011.484375
2022-09-21T04:35:34.941Z,1011.421814
2022-09-21T04:36:38.736Z,1011.408569
2022-09-21T04:37:35.003Z,1011.436707
2022-09-21T04:38:37.503Z,1011.482788
2022-09-21T04:39:33.124Z,1011.502502
2022-09-21T04:41:31.961Z,1011.469543
2022-09-21T04:42:31.546Z,1011.508972
2022-09-21T04:43:28.019Z,1011.42157
2022-09-21T04:44:25.623Z,1011.476074
2022-09-21T04:45:28.260Z,1011.482666
2022-09-21T04:46:30.593Z,1011.546631
2022-09-21T04:47:27.851Z,1011.513672
2022-09-21T04:48:30.429Z,1011.46283
2022-09-21T04:49:27.055Z,1011.586121
2022-09-21T04:49:39.248Z,1011.472656
2022-09-21T04:50:33.423Z,1011.476074
2022-09-21T04:51:36.708Z,1011.526855
2022-09-21T04:52:34.028Z,1011.457825
2022-09-21T04:53:35.984Z,1011.493958
2022-09-21T04:54:33.906Z,1011.591248
2022-09-21T04:55:32.522Z,1011.50061
2022-09-21T04:56:33.444Z,1011.582825
2022-09-21T04:57:30.159Z,1011.586121
2022-09-21T04:58:35.601Z,1011.58783
2022-09-21T04:59:31.031Z,1011.623962
2022-09-21T05:01:29.213Z,1011.599365
2022-09-21T05:02:35.423Z,1011.591248
2022-09-21T05:03:30.863Z,1011.592651
2022-09-21T05:04:32.720Z,1011.61908
2022-09-21T05:06:29.322Z,1011.581421
2022-09-21T05:07:24.921Z,1011.627441
2022-09-21T05:09:12.147Z,1011.689941
2022-09-21T05:09:33.539Z,1011.634033
2022-09-21T05:11:36.579Z,1011.668762
2022-09-21T05:12:40.694Z,1011.612671
2022-09-21T05:13:33.004Z,1011.597961
2022-09-21T05:14:33.805Z,1011.660461
2022-09-21T05:15:30.008Z,1011.660461
2022-09-21T05:16:35.251Z,1011.691589
2022-09-21T05:17:31.025Z,1011.670227
2022-09-21T05:18:33.624Z,1011.673462
2022-09-21T05:19:28.951Z,1011.630615
2022-09-21T05:20:31.828Z,1011.707825
2022-09-21T05:21:34.113Z,1011.623962
2022-09-21T05:22:36.685Z,1011.704468
2022-09-21T05:23:36.764Z,1011.689697
2022-09-21T05:24:31.689Z,1011.727356
2022-09-21T05:25:40.158Z,1011.750488
2022-09-21T05:26:33.659Z,1011.691162
2022-09-21T05:27:36.847Z,1011.727356
2022-09-21T05:28:30.292Z,1011.709351
2022-09-21T05:29:34.878Z,1011.709351
2022-09-21T05:31:32.612Z,1011.864197
2022-09-21T05:32:25.598Z,1011.768738
2022-09-21T05:33:27.815Z,1011.803101
2022-09-21T05:34:31.904Z,1011.812988
2022-09-21T05:34:36.627Z,1011.812988
2022-09-21T05:36:26.987Z,1011.841248
2022-09-21T05:37:22.472Z,1011.7901
2022-09-21T05:38:22.274Z,1011.809753
2022-09-21T05:39:20.439Z,1011.81958
2022-09-21T05:41:16.692Z,1011.907043
2022-09-21T05:42:17.929Z,1011.891968
2022-09-21T05:43:13.017Z,1011.883911
2022-09-21T05:44:17.163Z,1011.903564
2022-09-21T05:45:11.320Z,1011.875488
2022-09-21T05:46:19.206Z,1011.918274
2022-09-21T05:47:22.796Z,1011.91687
2022-09-21T05:48:18.655Z,1011.933289
2022-09-21T05:49:21.098Z,1011.878906
2022-09-21T05:50:16.202Z,1011.859192
2022-09-21T05:51:19.248Z,1011.908691
2022-09-21T05:52:19.350Z,1011.888977
2022-09-21T05:53:54.460Z,1011.871277
2022-09-21T05:54:57.940Z,1011.928894
2022-09-21T05:56:44.133Z,1011.892883
2022-09-21T05:57:30.794Z,1011.907898
2022-09-21T05:58:26.766Z,1011.924377
2022-09-21T05:59:27.122Z,1011.945618
2022-09-21T06:00:30.010Z,1011.896179
2022-09-21T06:01:33.786Z,1011.937439
2022-09-21T06:02:27.700Z,1012.0625
2022-09-21T06:03:32.521Z,1011.907654
2022-09-21T06:04:28.441Z,1012.014526
2022-09-21T06:06:30.868Z,1011.981567
2022-09-21T06:07:28.877Z,1012.053955
2022-09-21T06:08:30.164Z,1012.082092
2022-09-21T06:09:26.894Z,1012.101807
2022-09-21T06:10:30.295Z,1012.108459
2022-09-21T06:11:23.730Z,1012.006226
2022-09-21T06:12:25.226Z,1012.006226
2022-09-21T06:13:23.272Z,1012.119751
2022-09-21T06:14:24.939Z,1012.121582
2022-09-21T06:15:25.191Z,1012.067017
2022-09-21T06:16:26.216Z,1012.113098
2022-09-21T06:17:22.030Z,1012.113098
2022-09-21T06:18:22.628Z,1012.080139
2022-09-21T06:19:19.137Z,1012.114868
2022-09-21T06:20:19.447Z,1012.165771
2022-09-21T06:21:17.954Z,1012.174194
2022-09-21T06:22:18.661Z,1012.139465
2022-09-21T06:23:17.672Z,1012.086731
2022-09-21T06:24:20.415Z,1012.129517
2022-09-21T06:26:17.454Z,1012.131592
2022-09-21T06:27:10.975Z,1012.088745
2022-09-21T06:28:13.055Z,1012.147949
2022-09-21T06:29:15.847Z,1012.077087
2022-09-21T06:30:10.027Z,1012.207336
2022-09-21T06:32:06.588Z,1012.180908
2022-09-21T06:33:08.116Z,1012.16272
2022-09-21T06:34:03.833Z,1012.136414
2022-09-21T06:35:08.184Z,1012.142944
2022-09-21T06:37:06.470Z,1012.210754
2022-09-21T06:38:00.978Z,1012.174561
2022-09-21T06:39:01.446Z,1012.172729
2022-09-21T06:39:57.923Z,1012.128418
2022-09-21T06:41:54.865Z,1012.143127
2022-09-21T06:42:53.000Z,1012.143127
2022-09-21T06:43:53.878Z,1012.169556
2022-09-21T06:45:17.729Z,1012.184509
2022-09-21T06:46:57.027Z,1012.192627
2022-09-21T06:47:55.172Z,1012.192627
2022-09-21T06:48:54.056Z,1012.174683
2022-09-21T06:49:53.981Z,1012.217529
2022-09-21T06:51:52.200Z,1012.181396
2022-09-21T06:52:47.428Z,1012.196045
2022-09-21T06:53:48.297Z,1012.219116
2022-09-21T06:54:43.823Z,1012.205933
2022-09-21T06:55:44.132Z,1012.19281
2022-09-21T06:56:39.460Z,1012.201172
2022-09-21T06:57:38.930Z,1012.201172
2022-09-21T06:58:38.045Z,1012.306641
2022-09-21T06:59:33.517Z,1012.296692
2022-09-21T07:01:29.745Z,1012.17157
2022-09-21T07:02:32.403Z,1012.249146
2022-09-21T07:03:26.253Z,1012.168579
2022-09-21T07:04:28.948Z,1012.211426
2022-09-21T07:06:22.615Z,1012.196411
2022-09-21T07:07:18.063Z,1012.221252
2022-09-21T07:10:20.631Z,1012.206238
2022-09-21T07:11:13.448Z,1012.187805
2022-09-21T07:12:13.909Z,1012.227356
2022-09-21T07:13:09.871Z,1012.20752
2022-09-21T07:14:10.222Z,1012.22583
2022-09-21T07:15:05.711Z,1012.243835
2022-09-21T07:16:06.885Z,1012.22583
2022-09-21T07:17:02.980Z,1012.235779
2022-09-21T07:18:06.260Z,1012.227356
2022-09-21T07:18:07.457Z,1012.227356
2022-09-21T07:19:11.082Z,1012.252197
2022-09-21T07:19:13.572Z,1012.252197
2022-09-21T07:20:04.842Z,1012.273438
2022-09-21T07:22:00.953Z,1012.273254
2022-09-21T07:22:58.095Z,1012.253418
2022-09-21T07:24:01.753Z,1012.207275
2022-09-21T07:24:56.105Z,1012.236877
2022-09-21T07:26:52.587Z,1012.223572
2022-09-21T07:27:55.183Z,1012.212036
2022-09-21T07:28:49.542Z,1012.220154
2022-09-21T07:29:50.382Z,1012.259705
2022-09-21T07:31:47.003Z,1012.218445
2022-09-21T07:32:42.813Z,1012.244873
2022-09-21T07:33:43.789Z,1012.192017
2022-09-21T07:34:40.111Z,1012.218445
2022-09-21T07:35:37.789Z,1012.208435
2022-09-21T07:36:41.556Z,1012.234863
2022-09-21T07:37:34.965Z,1012.241394
2022-09-21T07:38:38.301Z,1012.284241
2022-09-21T07:39:31.631Z,1012.229614
2022-09-21T07:42:21.346Z,1012.250793
2022-09-21T07:43:03.814Z,1012.294861
2022-09-21T07:44:02.993Z,1012.289856
2022-09-21T07:45:04.387Z,1012.217163
2022-09-21T07:46:04.450Z,1012.268127
2022-09-21T07:47:01.031Z,1012.223694
2022-09-21T07:48:00.503Z,1012.256592
2022-09-21T07:49:01.946Z,1012.238281
2022-09-21T07:49:59.086Z,1012.193909
2022-09-21T07:52:04.403Z,1012.170471
2022-09-21T07:52:09.409Z,1012.170471
2022-09-21T07:52:11.245Z,1012.170471
2022-09-21T07:53:05.266Z,1012.190002
2022-09-21T07:54:00.564Z,1012.227478
2022-09-21T07:55:00.544Z,1012.144775
2022-09-21T07:56:58.488Z,1012.154236
2022-09-21T07:58:00.775Z,1012.169128
2022-09-21T07:58:58.929Z,1012.206665
2022-09-21T08:00:00.187Z,1012.219604
2022-09-21T08:00:59.401Z,1012.135498
2022-09-21T08:02:03.726Z,1012.22583
2022-09-21T08:02:58.898Z,1012.212341
2022-09-21T08:04:03.852Z,1012.170776
2022-09-21T08:05:00.241Z,1012.267578
2022-09-21T08:06:05.934Z,1012.212524
2022-09-21T08:07:04.141Z,1012.229858
2022-09-21T08:08:02.539Z,1012.085327
2022-09-21T08:09:08.504Z,1012.224854
2022-09-21T08:10:04.979Z,1012.207642
2022-09-21T08:12:06.727Z,1012.177979
2022-09-21T08:13:07.759Z,1012.225342
2022-09-21T08:14:08.606Z,1012.167114
2022-09-21T08:15:20.381Z,1012.147034
2022-09-21T08:15:36.842Z,1012.147034
2022-09-21T08:15:44.112Z,1012.147034
2022-09-21T08:17:02.601Z,1012.165283
2022-09-21T08:17:42.437Z,1012.198914
2022-09-21T08:18:41.483Z,1012.189636
2022-09-21T08:19:41.769Z,1012.167786
2022-09-21T08:20:38.200Z,1012.217102
2022-09-21T08:21:39.540Z,1012.260986
2022-09-21T08:22:36.189Z,1012.286499
2022-09-21T08:23:37.864Z,1012.272644
2022-09-21T08:24:34.554Z,1012.296387
2022-09-21T08:26:34.050Z,1012.197327
2022-09-21T08:27:38.452Z,1012.267639
2022-09-21T08:28:32.882Z,1012.23999
2022-09-21T08:29:37.049Z,1012.285461
2022-09-21T08:30:31.318Z,1012.316345
2022-09-21T08:31:33.061Z,1012.262085
2022-09-21T08:32:49.860Z,1012.270935
2022-09-21T08:32:50.609Z,1012.270935
2022-09-21T08:32:50.970Z,1012.270935
2022-09-21T08:33:32.172Z,1012.293701
2022-09-21T08:34:30.134Z,1012.241394
2022-09-21T08:35:30.879Z,1012.284363
2022-09-21T08:36:27.580Z,1012.249451
2022-09-21T08:37:29.174Z,1012.313354
2022-09-21T08:38:25.785Z,1012.405518
2022-09-21T08:39:27.397Z,1012.338623
2022-09-21T08:40:24.675Z,1012.262817
2022-09-21T08:41:28.298Z,1012.338623
2022-09-21T08:42:22.774Z,1012.306091
2022-09-21T08:46:51.952Z,1012.231873
2022-09-21T09:01:19.973Z,1012.196106
2022-09-21T09:02:00.020Z,1012.191956
2022-09-21T09:02:58.094Z,1012.232971
2022-09-21T09:03:59.580Z,1012.29248
2022-09-21T09:04:05.577Z,1012.29248
2022-09-21T09:04:56.905Z,1012.212524
2022-09-21T09:06:50.169Z,1012.259827
2022-09-21T09:07:50.409Z,1012.231079
2022-09-21T09:08:45.633Z,1012.247314
2022-09-21T09:09:45.738Z,1012.286316
2022-09-21T09:11:41.243Z,1012.247437
2022-09-21T09:12:36.769Z,1012.235168
2022-09-21T09:13:35.890Z,1012.179688
2022-09-21T09:14:34.878Z,1012.200134
2022-09-21T09:16:33.028Z,1012.153198
2022-09-21T09:17:25.628Z,1012.192139
2022-09-21T09:18:28.415Z,1012.18811
2022-09-21T09:19:21.254Z,1012.222656
2022-09-21T09:21:48.795Z,1012.304626
2022-09-21T09:21:55.319Z,1012.253418
2022-09-21T09:22:56.915Z,1012.302673
2022-09-21T09:23:53.468Z,1012.202332
2022-09-21T09:24:54.991Z,1012.261719
2022-09-21T09:25:51.614Z,1012.245483
2022-09-21T09:27:38.936Z,1012.24939
2022-09-21T09:28:19.714Z,1012.259827
2022-09-21T09:29:18.710Z,1012.255676
2022-09-21T09:31:12.453Z,1012.243286
2022-09-21T09:31:53.628Z,1012.308777
2022-09-21T09:32:53.751Z,1012.227051
2022-09-21T09:33:54.951Z,1012.315002
2022-09-21T09:34:52.143Z,1012.294556
2022-09-21T09:35:53.733Z,1012.331421
2022-09-21T09:36:59.478Z,1012.308777
2022-09-21T09:36:59.740Z,1012.308777
2022-09-21T09:37:52.997Z,1012.310608
2022-09-21T09:38:51.108Z,1012.302429
2022-09-21T09:39:54.851Z,1012.331116
2022-09-21T09:40:50.257Z,1012.265625
2022-09-21T09:41:51.574Z,1012.302185
2022-09-21T09:42:48.752Z,1012.261169
2022-09-21T09:43:50.964Z,1012.287842
2022-09-21T09:44:48.236Z,1012.34552
2022-09-21T09:46:47.622Z,1012.341064
2022-09-21T09:47:49.567Z,1012.289978
2022-09-21T09:48:47.174Z,1012.288147
2022-09-21T09:49:46.063Z,1012.293884
2022-09-21T09:50:44.384Z,1012.271729
2022-09-21T09:51:43.164Z,1012.238892
2022-09-21T09:52:38.558Z,1012.265808
2022-09-21T09:53:38.580Z,1012.282043
2022-09-21T09:54:33.935Z,1012.362122
2022-09-21T09:55:32.115Z,1012.274048
2022-09-21T09:56:34.106Z,1012.337402
2022-09-21T09:57:27.141Z,1012.31897
2022-09-21T09:58:27.009Z,1012.327209
2022-09-21T09:59:22.488Z,1012.331238
2022-09-21T10:01:22.349Z,1012.292358
2022-09-21T10:02:15.129Z,1012.238892
2022-09-21T10:03:17.264Z,1012.357727
2022-09-21T10:04:09.717Z,1012.308594
2022-09-21T10:05:07.864Z,1012.314453
2022-09-21T10:06:07.319Z,1012.281738
2022-09-21T10:07:02.262Z,1012.226379
2022-09-21T10:08:04.972Z,1012.308289
2022-09-21T10:08:57.402Z,1012.283936
2022-09-21T10:09:59.975Z,1012.322205
2022-09-21T10:10:52.571Z,1012.295654
2022-09-21T10:11:55.284Z,1012.279236
2022-09-21T10:12:48.349Z,1012.305847
2022-09-21T10:13:51.269Z,1012.294067
2022-09-21T10:14:44.149Z,1012.255127
2022-09-21T10:16:21.910Z,1012.240967
2022-09-21T10:17:02.312Z,1012.20813
2022-09-21T10:18:00.697Z,1012.212341
2022-09-21T10:18:58.575Z,1012.193909
2022-09-21T10:19:58.872Z,1012.150879
2022-09-21T10:20:54.303Z,1012.232788
2022-09-21T10:21:52.750Z,1012.216431
2022-09-21T10:22:50.302Z,1012.224548
2022-09-21T10:23:49.489Z,1012.118103
2022-09-21T10:24:46.321Z,1012.222656
2022-09-21T10:25:46.768Z,1012.163269
2022-09-21T10:26:42.415Z,1012.251099
2022-09-21T10:27:40.170Z,1012.281738
2022-09-21T10:28:40.143Z,1012.26123
2022-09-21T10:29:36.467Z,1012.285767
2022-09-21T10:30:34.998Z,1012.259155
2022-09-21T10:31:34.546Z,1012.294067
2022-09-21T10:32:30.002Z,1012.259155
2022-09-21T10:33:32.752Z,1012.310486
2022-09-21T10:34:25.759Z,1012.212158
2022-09-21T10:35:25.603Z,1012.212158
2022-09-21T10:36:20.815Z,1012.23877
2022-09-21T10:37:20.630Z,1012.269043
2022-09-21T10:38:19.818Z,1012.164856
2022-09-21T10:38:22.586Z,1012.164856
2022-09-21T10:39:15.945Z,1012.244629
2022-09-21T10:40:11.243Z,1012.20166
2022-09-21T10:41:13.640Z,1012.228271
2022-09-21T10:42:06.329Z,1012.187134
2022-09-21T10:43:06.128Z,1012.20343
2022-09-21T10:44:01.360Z,1012.265015
2022-09-21T10:45:01.489Z,1012.195496
2022-09-21T10:45:56.969Z,1012.248596
2022-09-21T10:47:51.976Z,1012.215881
2022-09-21T10:48:51.602Z,1012.20752
2022-09-21T10:56:42.741Z,1012.128296
2022-09-21T10:58:42.595Z,1012.078369
2022-09-21T11:20:36.079Z,1012.085388
2022-09-21T11:35:37.061Z,1011.963196
2022-09-21T12:15:38.103Z,1011.642517
2022-09-21T12:35:39.013Z,1011.492249
2022-09-21T13:25:41.120Z,1011.172913
2022-09-21T13:35:41.511Z,1011.134399
2022-09-21T13:40:42.390Z,1011.163574
2022-09-21T13:45:57.145Z,1011.112183
2022-09-21T13:55:24.251Z,1010.953613
2022-09-21T13:56:22.414Z,1010.960327
2022-09-21T14:20:43.655Z,1010.897705
2022-09-21T14:26:26.482Z,1010.79187
2022-09-21T14:45:44.573Z,1010.705811
2022-09-21T14:46:25.942Z,1010.681274
2022-09-21T14:47:25.788Z,1010.701904
2022-09-21T15:15:46.511Z,1010.473877
2022-09-21T15:16:27.451Z,1010.437805
2022-09-21T15:17:25.551Z,1010.50116
2022-09-21T15:18:25.147Z,1010.586853
2022-09-21T15:19:20.309Z,1010.442627
2022-09-21T15:20:20.196Z,1010.443909
2022-09-21T15:21:14.529Z,1010.429077
2022-09-21T15:22:13.716Z,1010.498291
2022-09-21T15:23:07.761Z,1010.581726
2022-09-21T15:24:06.630Z,1010.496704
2022-09-21T15:25:01.151Z,1010.497559
2022-09-21T15:26:54.364Z,1010.486572
2022-09-21T15:27:53.049Z,1010.482666
2022-09-21T15:29:08.488Z,1010.554749
2022-09-21T15:29:08.754Z,1010.554749
2022-09-21T15:29:09.199Z,1010.554749
2022-09-21T15:29:46.754Z,1010.577576
2022-09-21T15:30:40.985Z,1010.522522
2022-09-21T15:31:42.200Z,1010.528687
2022-09-21T15:32:37.462Z,1010.563721
2022-09-21T15:33:34.934Z,1010.512817
2022-09-21T15:34:30.701Z,1010.467957
2022-09-21T15:35:27.093Z,1010.474426
2022-09-21T15:37:18.576Z,1010.402954
2022-09-21T15:38:15.160Z,1010.433777
2022-09-21T15:39:15.983Z,1010.384705
2022-09-21T15:40:06.763Z,1010.433838
2022-09-21T15:42:03.222Z,1010.419678
2022-09-21T15:42:54.573Z,1010.370605
2022-09-21T15:43:52.482Z,1010.350464
2022-09-21T15:44:45.425Z,1010.401733
2022-09-21T15:45:43.478Z,1010.311584
2022-09-21T15:46:37.894Z,1010.399597
2022-09-21T15:47:33.690Z,1010.383423
2022-09-21T15:48:32.381Z,1010.363281
2022-09-21T15:49:27.648Z,1010.450928
2022-09-21T15:50:22.308Z,1010.444763
2022-09-21T15:51:20.042Z,1010.36908
2022-09-21T15:52:13.919Z,1010.340454
2022-09-21T15:53:14.078Z,1010.379211
2022-09-21T15:54:05.542Z,1010.303528
2022-09-21T15:55:06.380Z,1010.313721
2022-09-21T15:56:58.418Z,1010.315918
2022-09-21T15:57:50.069Z,1010.311707
2022-09-21T15:58:45.005Z,1010.34845
2022-09-21T16:00:09.639Z,1010.317993
2022-09-21T16:01:48.976Z,1010.325928
2022-09-21T16:02:49.072Z,1010.311768
2022-09-21T16:03:45.015Z,1010.280945
2022-09-21T16:04:46.626Z,1010.301392
2022-09-21T16:05:42.464Z,1010.277039
2022-09-21T16:06:43.295Z,1010.334229